createdAt,value
2023-03-02T00:01:02.914Z,67.94
2023-03-02T00:03:34.585Z,68.14
2023-03-02T00:06:07.778Z,68.82
2023-03-02T00:08:39.668Z,68.52
2023-03-02T00:11:11.342Z,68.28
2023-03-02T00:13:40.598Z,68.15
2023-03-02T00:16:11.988Z,68.46
2023-03-02T00:18:41.588Z,68.52
2023-03-02T00:21:12.733Z,68.57
2023-03-02T00:23:45.021Z,68.44
2023-03-02T00:26:16.226Z,68.26
2023-03-02T00:28:47.304Z,68.19
2023-03-02T00:31:18.532Z,68.48
2023-03-02T00:33:51.246Z,68.39
2023-03-02T00:36:24.543Z,68.56
2023-03-02T00:38:55.666Z,68.39
2023-03-02T00:41:26.708Z,68.15
2023-03-02T00:43:57.995Z,68.45
2023-03-02T00:46:30.113Z,68.32
2023-03-02T00:49:01.287Z,67.95
2023-03-02T00:51:32.263Z,68.26
2023-03-02T00:54:03.250Z,68.15
2023-03-02T00:56:34.850Z,68.29
2023-03-02T00:59:11.198Z,68.00
2023-03-02T01:01:42.217Z,67.73
2023-03-02T01:04:13.507Z,67.26
2023-03-02T01:06:47.242Z,67.17
2023-03-02T01:09:18.425Z,67.22
2023-03-02T01:11:49.506Z,66.97
2023-03-02T01:14:20.748Z,66.86
2023-03-02T01:16:51.820Z,66.88
2023-03-02T01:19:22.764Z,67.03
2023-03-02T01:21:53.695Z,66.94
2023-03-02T01:24:24.818Z,67.04
2023-03-02T01:26:55.948Z,67.13
2023-03-02T01:29:26.999Z,67.39
2023-03-02T01:31:58.268Z,68.37
2023-03-02T01:34:29.503Z,68.22
2023-03-02T01:37:00.791Z,68.23
2023-03-02T01:39:31.828Z,68.30
2023-03-02T01:42:02.810Z,68.27
2023-03-02T01:44:43.349Z,68.36
2023-03-02T01:47:19.983Z,68.54
2023-03-02T01:49:57.212Z,68.53
2023-03-02T01:52:30.438Z,68.99
2023-03-02T01:55:05.627Z,69.12
2023-03-02T01:57:43.833Z,69.63
2023-03-02T02:00:17.220Z,69.88
2023-03-02T02:02:48.943Z,70.05
2023-03-02T02:05:24.084Z,70.26
2023-03-02T02:07:55.230Z,70.39
2023-03-02T02:10:26.326Z,71.29
2023-03-02T02:12:57.945Z,71.79
2023-03-02T02:15:29.251Z,72.15
2023-03-02T02:17:58.825Z,72.09
2023-03-02T02:20:36.710Z,72.29
2023-03-02T02:23:26.157Z,71.96
2023-03-02T02:26:13.875Z,72.08
2023-03-02T02:28:50.157Z,71.99
2023-03-02T02:31:26.639Z,72.06
2023-03-02T02:34:01.846Z,71.74
2023-03-02T02:36:39.349Z,71.34
2023-03-02T02:39:12.814Z,71.31
2023-03-02T02:41:47.299Z,71.50
2023-03-02T02:44:19.747Z,71.33
2023-03-02T02:46:50.744Z,71.31
2023-03-02T02:49:30.088Z,71.20
2023-03-02T02:52:01.427Z,71.28
2023-03-02T02:54:34.598Z,71.37
2023-03-02T02:57:06.904Z,71.34
2023-03-02T02:59:43.397Z,71.62
2023-03-02T03:02:19.720Z,71.83
2023-03-02T03:04:52.106Z,72.01
2023-03-02T03:07:25.801Z,71.98
2023-03-02T03:10:02.929Z,72.09
2023-03-02T03:12:36.134Z,72.11
2023-03-02T03:15:10.145Z,72.37
2023-03-02T03:17:41.248Z,72.17
2023-03-02T03:20:18.042Z,72.22
2023-03-02T03:22:49.230Z,72.53
2023-03-02T03:25:41.784Z,72.41
2023-03-02T03:28:13.158Z,72.56
2023-03-02T03:30:49.043Z,72.78
2023-03-02T03:33:28.760Z,72.80
2023-03-02T03:36:00.873Z,72.87
2023-03-02T03:38:33.058Z,72.96
2023-03-02T03:41:04.239Z,73.04
2023-03-02T03:43:35.569Z,72.99
2023-03-02T03:46:07.335Z,73.42
2023-03-02T03:48:36.834Z,73.56
2023-03-02T03:51:09.770Z,73.79
2023-03-02T03:53:41.298Z,74.07
2023-03-02T03:56:11.090Z,74.23
2023-03-02T03:58:42.203Z,74.08
2023-03-02T04:01:13.343Z,74.29
2023-03-02T04:03:44.375Z,74.17
2023-03-02T04:06:18.978Z,74.27
2023-03-02T04:08:50.040Z,74.20
2023-03-02T04:11:21.072Z,74.19
2023-03-02T04:13:52.069Z,74.52
2023-03-02T04:16:23.070Z,74.46
2023-03-02T04:18:54.108Z,74.44
2023-03-02T04:21:25.613Z,74.15
2023-03-02T04:23:57.439Z,74.36
2023-03-02T04:26:31.214Z,74.37
2023-03-02T04:29:03.053Z,74.51
2023-03-02T04:31:35.179Z,74.65
2023-03-02T04:34:06.677Z,74.59
2023-03-02T04:36:41.401Z,74.62
2023-03-02T04:39:14.849Z,74.61
2023-03-02T04:41:46.971Z,74.69
2023-03-02T04:44:19.860Z,74.67
2023-03-02T04:46:51.737Z,74.64
2023-03-02T04:49:23.074Z,74.85
2023-03-02T04:51:54.248Z,75.20
2023-03-02T04:54:25.916Z,75.13
2023-03-02T04:56:57.968Z,75.20
2023-03-02T04:59:30.585Z,75.16
2023-03-02T05:02:02.739Z,74.96
2023-03-02T05:04:34.528Z,74.99
2023-03-02T05:07:04.393Z,75.24
2023-03-02T05:09:35.684Z,75.27
2023-03-02T05:12:07.625Z,75.17
2023-03-02T05:14:37.006Z,75.26
2023-03-02T05:17:08.021Z,75.09
2023-03-02T05:19:39.053Z,75.20
2023-03-02T05:22:10.156Z,75.21
2023-03-02T05:24:41.210Z,75.43
2023-03-02T05:27:12.455Z,75.32
2023-03-02T05:29:43.632Z,75.43
2023-03-02T05:32:17.417Z,75.14
2023-03-02T05:34:48.724Z,75.19
2023-03-02T05:37:19.836Z,75.06
2023-03-02T05:39:50.952Z,75.03
2023-03-02T05:42:22.213Z,75.04
2023-03-02T05:44:53.306Z,75.20
2023-03-02T05:47:24.347Z,75.07
2023-03-02T05:49:55.442Z,75.06
2023-03-02T05:52:26.307Z,75.23
2023-03-02T05:54:59.381Z,75.36
2023-03-02T05:57:30.865Z,75.27
2023-03-02T06:00:01.928Z,75.45
2023-03-02T06:02:34.548Z,75.34
2023-03-02T06:05:06.285Z,75.29
2023-03-02T06:07:35.720Z,75.43
2023-03-02T06:10:08.312Z,75.32
2023-03-02T06:12:39.704Z,75.52
2023-03-02T06:15:11.848Z,75.32
2023-03-02T06:17:43.041Z,75.26
2023-03-02T06:20:16.167Z,75.37
2023-03-02T06:22:48.350Z,75.25
2023-03-02T06:25:22.535Z,75.01
2023-03-02T06:27:54.781Z,74.97
2023-03-02T06:30:27.978Z,74.97
2023-03-02T06:32:59.964Z,75.09
2023-03-02T06:35:31.163Z,74.88
2023-03-02T06:38:01.100Z,75.02
2023-03-02T06:40:32.591Z,74.53
2023-03-02T06:43:04.432Z,74.81
2023-03-02T06:45:35.674Z,74.87
2023-03-02T06:48:07.567Z,74.73
2023-03-02T06:50:38.865Z,74.40
2023-03-02T06:53:10.238Z,74.20
2023-03-02T06:55:41.212Z,73.96
2023-03-02T06:58:13.265Z,73.27
2023-03-02T07:00:44.094Z,72.85
2023-03-02T07:03:15.230Z,71.52
2023-03-02T07:05:48.988Z,70.56
2023-03-02T07:08:20.113Z,69.69
2023-03-02T07:10:51.231Z,69.10
2023-03-02T07:13:22.541Z,67.62
2023-03-02T07:15:54.978Z,67.78
2023-03-02T07:18:26.222Z,65.87
2023-03-02T07:20:57.213Z,64.14
2023-03-02T07:23:28.658Z,63.81
2023-03-02T07:25:58.283Z,63.01
2023-03-02T07:28:29.493Z,62.14
2023-03-02T07:31:00.676Z,60.92
2023-03-02T07:33:31.573Z,60.96
2023-03-02T07:36:02.950Z,60.67
2023-03-02T07:38:33.908Z,59.57
2023-03-02T07:41:09.440Z,59.06
2023-03-02T07:43:40.780Z,59.95
2023-03-02T07:46:12.450Z,59.00
2023-03-02T07:48:41.844Z,57.75
2023-03-02T07:51:12.933Z,58.16
2023-03-02T07:53:44.101Z,58.04
2023-03-02T07:56:15.397Z,56.32
2023-03-02T07:58:44.934Z,56.25
2023-03-02T08:01:16.150Z,56.10
2023-03-02T08:03:45.695Z,55.82
2023-03-02T08:06:16.926Z,55.75
2023-03-02T08:08:46.769Z,55.08
2023-03-02T08:11:19.585Z,55.01
2023-03-02T08:13:50.979Z,54.25
2023-03-02T08:16:23.186Z,53.11
2023-03-02T08:18:54.757Z,52.59
2023-03-02T08:21:25.413Z,51.87
2023-03-02T08:23:56.381Z,51.17
2023-03-02T08:26:27.318Z,50.72
2023-03-02T08:28:58.725Z,51.54
2023-03-02T08:31:31.654Z,49.77
2023-03-02T08:34:03.146Z,50.10
2023-03-02T08:36:34.748Z,51.01
2023-03-02T08:39:06.093Z,51.81
2023-03-02T08:41:37.308Z,51.37
2023-03-02T08:44:09.146Z,50.90
2023-03-02T08:46:40.264Z,48.78
2023-03-02T08:49:11.458Z,47.99
2023-03-02T08:51:43.116Z,47.36
2023-03-02T08:54:14.991Z,46.28
2023-03-02T08:56:46.345Z,48.03
2023-03-02T08:59:18.448Z,47.36
2023-03-02T09:01:49.806Z,47.02
2023-03-02T09:04:21.023Z,46.41
2023-03-02T09:06:52.219Z,46.22
2023-03-02T09:09:23.013Z,46.53
2023-03-02T09:11:54.164Z,47.27
2023-03-02T09:14:25.125Z,45.81
2023-03-02T09:16:54.756Z,44.72
2023-03-02T09:19:25.999Z,44.93
2023-03-02T09:21:55.467Z,44.97
2023-03-02T09:24:26.936Z,45.15
2023-03-02T09:26:56.457Z,45.09
2023-03-02T09:29:27.903Z,44.95
2023-03-02T09:31:57.601Z,46.26
2023-03-02T09:34:29.496Z,45.78
2023-03-02T09:37:00.526Z,44.98
2023-03-02T09:39:31.552Z,44.88
2023-03-02T09:42:16.019Z,44.83
2023-03-02T09:45:05.001Z,45.22
2023-03-02T09:47:46.119Z,45.12
2023-03-02T09:50:31.569Z,46.48
2023-03-02T09:53:26.158Z,46.23
2023-03-02T09:56:00.385Z,46.12
2023-03-02T09:58:39.336Z,45.31
2023-03-02T10:01:17.349Z,44.99
2023-03-02T10:03:56.523Z,44.58
2023-03-02T10:06:30.192Z,44.84
2023-03-02T10:09:01.817Z,45.07
2023-03-02T10:11:43.100Z,45.53
2023-03-02T10:14:19.441Z,45.19
2023-03-02T10:16:53.901Z,44.34
2023-03-02T10:19:32.879Z,44.11
2023-03-02T10:22:12.810Z,44.46
2023-03-02T10:24:54.805Z,43.62
2023-03-02T10:27:31.204Z,42.53
2023-03-02T10:30:07.541Z,41.95
2023-03-02T10:32:44.511Z,41.44
2023-03-02T10:35:18.198Z,42.33
2023-03-02T10:37:51.793Z,40.99
2023-03-02T10:40:42.912Z,41.08
2023-03-02T10:43:20.102Z,39.82
2023-03-02T10:46:01.653Z,39.22
2023-03-02T10:48:33.354Z,39.70
2023-03-02T10:51:04.458Z,40.32
2023-03-02T10:53:35.579Z,40.11
2023-03-02T10:56:20.782Z,39.32
2023-03-02T10:58:51.780Z,39.55
2023-03-02T11:01:21.494Z,39.23
2023-03-02T11:04:00.824Z,39.71
2023-03-02T11:06:33.886Z,40.46
2023-03-02T11:09:07.720Z,39.61
2023-03-02T11:11:39.042Z,39.40
2023-03-02T11:14:17.773Z,38.99
2023-03-02T11:16:49.042Z,40.02
2023-03-02T11:19:26.819Z,40.66
2023-03-02T11:22:04.172Z,40.21
2023-03-02T11:24:42.696Z,39.47
2023-03-02T11:27:22.685Z,38.55
2023-03-02T11:30:00.822Z,38.36
2023-03-02T11:32:38.489Z,39.08
2023-03-02T11:35:15.063Z,40.26
2023-03-02T11:37:50.839Z,39.87
2023-03-02T11:40:30.339Z,39.20
2023-03-02T11:43:05.018Z,39.39
2023-03-02T11:45:42.791Z,38.37
2023-03-02T11:48:23.669Z,38.94
2023-03-02T11:50:59.954Z,39.52
2023-03-02T11:53:37.371Z,39.72
2023-03-02T11:56:08.946Z,39.64
2023-03-02T11:58:40.964Z,40.19
2023-03-02T12:01:18.418Z,38.42
2023-03-02T12:03:49.703Z,38.89
2023-03-02T12:06:38.655Z,37.98
2023-03-02T12:09:30.980Z,37.72
2023-03-02T12:12:18.722Z,37.12
2023-03-02T12:14:49.950Z,37.05
2023-03-02T12:17:32.254Z,36.92
2023-03-02T12:20:27.163Z,37.58
2023-03-02T12:23:10.525Z,36.06
2023-03-02T12:25:44.016Z,35.47
2023-03-02T12:28:36.364Z,36.57
2023-03-02T12:31:13.913Z,36.98
2023-03-02T12:33:48.806Z,37.28
2023-03-02T12:36:27.223Z,36.62
2023-03-02T12:39:21.285Z,35.33
2023-03-02T12:42:16.356Z,33.33
2023-03-02T12:44:57.472Z,32.73
2023-03-02T12:47:30.467Z,33.77
2023-03-02T12:50:05.639Z,32.70
2023-03-02T12:52:38.272Z,33.08
2023-03-02T12:55:17.906Z,32.80
2023-03-02T12:57:53.544Z,32.48
2023-03-02T13:00:26.975Z,30.65
2023-03-02T13:02:59.793Z,30.82
2023-03-02T13:05:36.533Z,30.94
2023-03-02T13:08:10.790Z,30.56
2023-03-02T13:10:44.699Z,31.93
2023-03-02T13:13:21.493Z,30.78
2023-03-02T13:15:54.961Z,30.90
2023-03-02T13:18:31.885Z,32.29
2023-03-02T13:21:04.551Z,31.27
2023-03-02T13:23:36.961Z,32.41
2023-03-02T13:26:08.528Z,30.96
2023-03-02T13:28:41.275Z,28.92
2023-03-02T13:31:22.174Z,29.35
2023-03-02T13:33:56.997Z,29.09
2023-03-02T13:36:30.520Z,28.71
2023-03-02T13:39:03.411Z,30.13
2023-03-02T13:41:36.712Z,30.19
2023-03-02T13:44:21.683Z,30.64
2023-03-02T13:46:53.148Z,29.79
2023-03-02T13:49:33.555Z,29.70
2023-03-02T13:52:08.475Z,30.90
2023-03-02T13:54:43.316Z,30.17
2023-03-02T13:57:20.062Z,30.61
2023-03-02T13:59:51.352Z,31.93
2023-03-02T14:02:27.262Z,32.28
2023-03-02T14:04:58.914Z,32.19
2023-03-02T14:07:29.937Z,31.32
2023-03-02T14:10:00.926Z,30.90
2023-03-02T14:12:34.034Z,29.75
2023-03-02T14:15:06.812Z,28.87
2023-03-02T14:17:38.348Z,30.24
2023-03-02T14:20:13.223Z,29.96
2023-03-02T14:22:44.772Z,29.13
2023-03-02T14:25:16.530Z,29.37
2023-03-02T14:27:48.275Z,28.84
2023-03-02T14:30:21.884Z,29.29
2023-03-02T14:32:53.011Z,29.36
2023-03-02T14:35:26.194Z,29.72
2023-03-02T14:37:57.329Z,30.21
2023-03-02T14:40:29.563Z,29.76
2023-03-02T14:43:00.526Z,30.86
2023-03-02T14:45:31.601Z,31.31
2023-03-02T14:48:02.599Z,31.76
2023-03-02T14:50:43.661Z,30.94
2023-03-02T14:53:20.001Z,30.95
2023-03-02T14:55:51.352Z,32.32
2023-03-02T14:58:29.407Z,32.84
2023-03-02T15:01:00.581Z,33.19
2023-03-02T15:03:31.929Z,33.80
2023-03-02T15:06:03.088Z,34.49
2023-03-02T15:08:34.481Z,34.71
2023-03-02T15:11:05.808Z,33.98
2023-03-02T15:13:37.024Z,31.92
2023-03-02T15:16:10.741Z,31.82
2023-03-02T15:18:42.533Z,31.60
2023-03-02T15:21:18.376Z,30.81
2023-03-02T15:23:51.017Z,30.48
2023-03-02T15:26:21.964Z,31.91
2023-03-02T15:28:54.046Z,30.30
2023-03-02T15:31:25.165Z,28.83
2023-03-02T15:33:57.527Z,29.18
2023-03-02T15:36:28.697Z,29.24
2023-03-02T15:39:00.195Z,28.63
2023-03-02T15:41:31.336Z,28.55
2023-03-02T15:44:02.823Z,30.51
2023-03-02T15:46:33.848Z,31.24
2023-03-02T15:49:04.804Z,31.49
2023-03-02T15:51:36.372Z,31.35
2023-03-02T15:54:11.003Z,31.54
2023-03-02T15:56:44.360Z,32.23
2023-03-02T15:59:16.549Z,30.38
2023-03-02T16:01:47.606Z,29.95
2023-03-02T16:04:19.186Z,30.02
2023-03-02T16:06:50.336Z,30.21
2023-03-02T16:09:21.908Z,30.95
2023-03-02T16:11:53.304Z,31.79
2023-03-02T16:14:24.654Z,32.24
2023-03-02T16:16:55.958Z,33.00
2023-03-02T16:19:26.969Z,33.80
2023-03-02T16:21:58.142Z,34.45
2023-03-02T16:24:27.612Z,35.48
2023-03-02T16:26:58.586Z,35.79
2023-03-02T16:29:31.109Z,36.78
2023-03-02T16:32:02.379Z,37.71
2023-03-02T16:34:33.508Z,37.67
2023-03-02T16:37:03.076Z,38.30
2023-03-02T16:39:34.497Z,39.26
2023-03-02T16:42:05.729Z,39.85
2023-03-02T16:44:37.908Z,40.19
2023-03-02T16:47:09.176Z,40.56
2023-03-02T16:49:40.486Z,41.40
2023-03-02T16:52:10.082Z,42.17
2023-03-02T16:54:41.434Z,42.65
2023-03-02T16:57:12.316Z,43.24
2023-03-02T16:59:43.435Z,43.92
2023-03-02T17:02:15.750Z,44.52
2023-03-02T17:04:47.016Z,45.26
2023-03-02T17:07:19.742Z,45.61
2023-03-02T17:09:50.862Z,46.29
2023-03-02T17:12:20.541Z,46.89
2023-03-02T17:14:51.486Z,47.58
2023-03-02T17:17:22.823Z,48.27
2023-03-02T17:19:54.370Z,48.71
2023-03-02T17:22:25.962Z,49.19
2023-03-02T17:24:57.496Z,49.63
2023-03-02T17:27:28.895Z,50.30
2023-03-02T17:30:00.133Z,50.94
2023-03-02T17:32:31.509Z,51.56
2023-03-02T17:35:02.572Z,52.05
2023-03-02T17:37:33.648Z,52.44
2023-03-02T17:40:05.283Z,53.03
2023-03-02T17:42:39.059Z,54.03
2023-03-02T17:45:16.299Z,54.12
2023-03-02T17:47:47.384Z,54.21
2023-03-02T17:50:19.335Z,55.08
2023-03-02T17:52:50.552Z,55.48
2023-03-02T17:55:22.107Z,55.75
2023-03-02T17:57:53.474Z,56.06
2023-03-02T18:00:26.131Z,56.54
2023-03-02T18:02:57.190Z,56.71
2023-03-02T18:05:28.808Z,57.21
2023-03-02T18:08:00.240Z,57.67
2023-03-02T18:10:31.766Z,58.14
2023-03-02T18:13:02.748Z,59.26
2023-03-02T18:15:34.616Z,58.95
2023-03-02T18:18:05.833Z,58.91
2023-03-02T18:20:37.468Z,59.26
2023-03-02T18:23:08.899Z,60.00
2023-03-02T18:25:40.071Z,60.48
2023-03-02T18:28:11.188Z,60.52
2023-03-02T18:30:42.893Z,60.67
2023-03-02T18:33:12.389Z,61.15
2023-03-02T18:35:43.859Z,61.62
2023-03-02T18:38:15.254Z,61.81
2023-03-02T18:40:46.799Z,62.52
2023-03-02T18:43:16.320Z,62.71
2023-03-02T18:45:47.457Z,62.90
2023-03-02T18:48:18.679Z,63.20
2023-03-02T18:50:50.415Z,63.57
2023-03-02T18:53:21.910Z,63.56
2023-03-02T18:55:52.564Z,63.74
2023-03-02T18:58:25.193Z,64.17
2023-03-02T19:00:56.745Z,64.23
2023-03-02T19:03:28.194Z,64.48
2023-03-02T19:05:59.463Z,64.62
2023-03-02T19:08:30.952Z,64.85
2023-03-02T19:11:02.149Z,65.00
2023-03-02T19:13:33.382Z,65.25
2023-03-02T19:16:04.595Z,65.35
2023-03-02T19:18:35.575Z,65.86
2023-03-02T19:21:07.609Z,65.91
2023-03-02T19:23:38.991Z,66.02
2023-03-02T19:26:10.273Z,66.25
2023-03-02T19:28:40.019Z,66.45
2023-03-02T19:31:11.697Z,66.78
2023-03-02T19:33:45.331Z,66.95
2023-03-02T19:36:16.780Z,67.43
2023-03-02T19:38:48.041Z,67.59
2023-03-02T19:41:21.112Z,68.16
2023-03-02T19:43:52.252Z,68.55
2023-03-02T19:46:23.382Z,68.50
2023-03-02T19:48:54.820Z,68.76
2023-03-02T19:51:26.207Z,69.15
2023-03-02T19:53:57.982Z,69.75
2023-03-02T19:56:33.095Z,69.75
2023-03-02T19:59:04.178Z,69.77
2023-03-02T20:01:36.209Z,69.55
2023-03-02T20:04:07.885Z,69.79
2023-03-02T20:06:38.188Z,70.03
2023-03-02T20:09:08.238Z,70.84
2023-03-02T20:11:39.224Z,70.56
2023-03-02T20:14:10.227Z,70.52
2023-03-02T20:16:41.453Z,70.50
2023-03-02T20:19:14.303Z,70.37
2023-03-02T20:21:45.509Z,70.66
2023-03-02T20:24:17.052Z,70.59
2023-03-02T20:26:48.465Z,70.77
2023-03-02T20:29:20.402Z,70.59
2023-03-02T20:31:51.941Z,70.61
2023-03-02T20:34:23.380Z,70.61
2023-03-02T20:36:54.378Z,70.65
2023-03-02T20:39:30.108Z,70.82
2023-03-02T20:42:01.911Z,71.45
2023-03-02T20:44:34.195Z,71.52
2023-03-02T20:47:09.284Z,71.24
2023-03-02T20:49:40.848Z,71.21
2023-03-02T20:52:12.707Z,71.09
2023-03-02T20:54:45.705Z,70.94
2023-03-02T20:57:18.506Z,70.94
2023-03-02T20:59:50.732Z,71.24
2023-03-02T21:02:23.238Z,71.44
2023-03-02T21:04:54.423Z,71.64
2023-03-02T21:07:25.511Z,71.68
2023-03-02T21:09:56.436Z,71.75
2023-03-02T21:12:27.556Z,71.66
2023-03-02T21:14:57.531Z,71.79
2023-03-02T21:17:29.081Z,71.98
2023-03-02T21:20:00.834Z,72.01
2023-03-02T21:22:33.519Z,72.14
2023-03-02T21:25:09.053Z,72.33
2023-03-02T21:27:41.203Z,72.39
2023-03-02T21:30:19.814Z,72.41
2023-03-02T21:32:51.657Z,72.46
2023-03-02T21:35:24.454Z,72.83
2023-03-02T21:37:57.860Z,72.91
2023-03-02T21:40:32.242Z,73.20
2023-03-02T21:43:05.459Z,73.28
2023-03-02T21:45:37.268Z,73.24
2023-03-02T21:48:09.366Z,73.15
2023-03-02T21:50:41.082Z,73.09
2023-03-02T21:53:11.992Z,73.05
2023-03-02T21:55:45.720Z,73.17
2023-03-02T21:58:17.181Z,73.70
2023-03-02T22:00:48.337Z,73.64
2023-03-02T22:03:19.444Z,73.68
2023-03-02T22:05:50.723Z,74.14
2023-03-02T22:08:22.791Z,75.06
2023-03-02T22:10:54.437Z,75.64
2023-03-02T22:13:27.579Z,75.34
2023-03-02T22:16:12.507Z,75.00
2023-03-02T22:18:44.926Z,74.72
2023-03-02T22:21:28.981Z,74.86
2023-03-02T22:24:24.971Z,74.54
2023-03-02T22:27:01.481Z,74.74
2023-03-02T22:29:40.136Z,74.60
2023-03-02T22:32:18.924Z,74.73
2023-03-02T22:34:54.578Z,75.12
2023-03-02T22:37:28.146Z,75.40
2023-03-02T22:40:02.516Z,76.11
2023-03-02T22:42:33.781Z,76.00
2023-03-02T22:45:14.906Z,76.18
2023-03-02T22:47:49.124Z,76.30
2023-03-02T22:50:25.469Z,76.62
2023-03-02T22:52:58.413Z,76.82
2023-03-02T22:55:38.065Z,77.39
2023-03-02T22:58:43.766Z,77.16
2023-03-02T23:01:24.424Z,76.61
2023-03-02T23:03:59.343Z,76.23
2023-03-02T23:06:32.902Z,76.11
2023-03-02T23:09:07.876Z,76.33
2023-03-02T23:11:42.368Z,76.50
2023-03-02T23:14:21.916Z,76.71
2023-03-02T23:16:56.397Z,76.97
2023-03-02T23:19:28.909Z,77.57
2023-03-02T23:22:00.390Z,77.47
2023-03-02T23:24:31.304Z,77.60
2023-03-02T23:27:02.153Z,77.75
2023-03-02T23:29:32.765Z,77.73
2023-03-02T23:32:04.682Z,77.93
2023-03-02T23:34:35.819Z,77.76
2023-03-02T23:37:07.012Z,77.54
2023-03-02T23:39:37.969Z,77.58
2023-03-02T23:42:09.513Z,77.68
2023-03-02T23:44:40.659Z,77.90
2023-03-02T23:47:11.600Z,78.00
2023-03-02T23:49:42.794Z,77.86
2023-03-02T23:52:13.803Z,77.75
2023-03-02T23:54:46.369Z,77.40
2023-03-02T23:57:17.504Z,76.96
2023-03-02T23:59:48.753Z,76.82
